Time;durP1;ratioP1;P1;durP2;ratioP2;P2;SDS_P1;SDS_P2;PMS_P1;PMS_P2;Temp;Humidity;BMP_temperature;BMP_pressure;BME280_temperature;BME280_humidity;BME280_pressure;Samples;Min_cycle;Max_cycle;Signal;HPM_P1;HPM_P2
2021/12/04 00:01:12;;;;;;;39.20;24.83;;;;;;;8.89;100.00;98698.78;5053745;28;20669;-72
2021/12/04 00:03:39;;;;;;;33.87;24.27;;;;;;;8.91;100.00;98704.69;5053108;28;20207;-72
2021/12/04 00:06:11;;;;;;;39.00;25.03;;;;;;;8.79;100.00;98691.47;5052072;28;20262;-72
2021/12/04 00:08:43;;;;;;;41.27;24.43;;;;;;;8.95;100.00;98707.94;5051449;28;20248;-72
2021/12/04 00:11:10;;;;;;;42.87;23.83;;;;;;;8.98;100.00;98714.69;5051138;28;20205;-72
2021/12/04 00:13:37;;;;;;;33.03;22.80;;;;;;;8.98;100.00;98718.91;5053176;28;20219;-72
2021/12/04 00:16:04;;;;;;;39.33;23.93;;;;;;;8.96;100.00;98715.56;5068605;28;20204;-72
2021/12/04 00:18:30;;;;;;;32.57;22.97;;;;;;;8.88;100.00;98714.19;5071434;28;20672;-72
2021/12/04 00:20:57;;;;;;;34.57;24.27;;;;;;;8.86;100.00;98723.59;5071846;28;20207;-72
2021/12/04 00:23:25;;;;;;;36.57;21.37;;;;;;;8.81;100.00;98721.22;5071250;28;20664;-72
2021/12/04 00:25:52;;;;;;;31.07;21.00;;;;;;;8.81;100.00;98722.94;5071247;28;20227;-72
2021/12/04 00:28:19;;;;;;;31.77;20.27;;;;;;;8.77;100.00;98723.91;5071252;28;20212;-72
2021/12/04 00:30:46;;;;;;;26.40;18.63;;;;;;;8.76;100.00;98729.91;5071077;28;20253;-72
2021/12/04 00:33:16;;;;;;;31.40;20.50;;;;;;;8.69;100.00;98731.00;5066718;28;20291;-71
2021/12/04 00:35:46;;;;;;;28.97;21.27;;;;;;;8.64;100.00;98727.75;5069786;28;20207;-72
2021/12/04 00:49:24;;;;;;;20.77;15.53;;;;;;;8.54;100.00;98726.38;5069908;28;20324;-72
2021/12/04 00:51:54;;;;;;;18.00;13.47;;;;;;;8.55;100.00;98728.06;5058965;28;20207;-72
2021/12/04 00:54:23;;;;;;;24.30;13.60;;;;;;;8.57;100.00;98722.00;5056930;28;20197;-72
2021/12/04 00:56:52;;;;;;;17.30;12.60;;;;;;;8.60;100.00;98721.06;5054752;28;20201;-72
2021/12/04 00:59:20;;;;;;;15.30;13.67;;;;;;;8.57;100.00;98723.72;5049626;28;20207;-72
2021/12/04 01:01:47;;;;;;;16.70;12.50;;;;;;;8.57;100.00;98728.84;5051819;28;20579;-72
2021/12/04 01:04:17;;;;;;;13.40;11.27;;;;;;;8.54;100.00;98723.84;5063380;28;20208;-72
2021/12/04 01:06:44;;;;;;;13.73;10.57;;;;;;;8.46;100.00;98707.94;5067592;28;20200;-72
2021/12/04 01:09:14;;;;;;;12.60;10.00;;;;;;;8.57;100.00;98716.91;5070966;28;20658;-72
2021/12/04 01:11:42;;;;;;;10.23;9.37;;;;;;;8.55;100.00;98712.75;5062765;28;20283;-72
2021/12/04 01:14:12;;;;;;;11.00;10.00;;;;;;;8.60;100.00;98711.69;5068162;28;20192;-72
2021/12/04 01:16:38;;;;;;;11.00;9.90;;;;;;;8.58;100.00;98708.38;5070549;28;20204;-72
2021/12/04 01:19:05;;;;;;;12.93;9.97;;;;;;;8.60;100.00;98716.81;5070644;28;20204;-72
2021/12/04 01:21:32;;;;;;;11.53;9.13;;;;;;;8.63;100.00;98719.25;5063351;28;20224;-72
2021/12/04 01:23:59;;;;;;;10.37;9.47;;;;;;;8.66;100.00;98710.69;5047987;28;20193;-72
2021/12/04 01:26:26;;;;;;;10.07;9.20;;;;;;;8.68;100.00;98694.41;5049675;28;20662;-72
2021/12/04 01:28:53;;;;;;;11.90;8.53;;;;;;;8.68;100.00;98691.00;5050466;28;20216;-72
2021/12/04 01:31:21;;;;;;;11.73;8.10;;;;;;;8.70;100.00;98681.56;5062878;28;20200;-72
2021/12/04 01:33:48;;;;;;;8.80;8.17;;;;;;;8.78;100.00;98700.03;5062329;28;20196;-72
2021/12/04 01:36:15;;;;;;;9.90;7.47;;;;;;;8.72;100.00;98690.03;5050396;28;20204;-72
2021/12/04 01:38:42;;;;;;;8.40;7.60;;;;;;;8.55;100.00;98674.44;5050324;28;20193;-72
2021/12/04 01:41:09;;;;;;;8.60;7.97;;;;;;;8.58;100.00;98671.75;5050484;28;20197;-72
2021/12/04 01:43:36;;;;;;;7.50;6.93;;;;;;;8.60;100.00;98687.84;5057270;28;20196;-74
2021/12/04 01:46:04;;;;;;;7.50;7.00;;;;;;;8.59;100.00;98688.78;5070269;28;20200;-72
2021/12/04 01:48:32;;;;;;;7.53;6.67;;;;;;;8.50;100.00;98663.53;5059443;28;20700;-72
2021/12/04 01:51:00;;;;;;;8.47;7.47;;;;;;;8.53;100.00;98681.31;5067547;28;20226;-71
2021/12/04 01:53:27;;;;;;;7.67;7.17;;;;;;;8.19;100.00;98627.94;5054731;28;20212;-72
2021/12/04 01:55:56;;;;;;;7.73;7.23;;;;;;;8.37;100.00;98676.69;5050156;28;20200;-71
2021/12/04 01:58:25;;;;;;;10.00;8.30;;;;;;;8.39;100.00;98691.97;5052892;28;20216;-71
2021/12/04 02:00:52;;;;;;;8.50;7.90;;;;;;;8.33;100.00;98687.91;5050185;28;20204;-71
2021/12/04 02:03:19;;;;;;;7.40;6.47;;;;;;;8.32;100.00;98686.22;5050215;28;20203;-71
2021/12/04 02:05:48;;;;;;;8.97;8.23;;;;;;;8.30;100.00;98682.88;5050270;28;20197;-71
2021/12/04 02:08:18;;;;;;;7.07;6.60;;;;;;;8.32;100.00;98686.22;5052019;28;20219;-71
2021/12/04 02:10:46;;;;;;;7.83;7.10;;;;;;;8.33;100.00;98682.81;5050135;28;20200;-72
2021/12/04 02:13:15;;;;;;;7.37;6.77;;;;;;;8.32;100.00;98668.34;5069163;28;20575;-71
2021/12/04 02:15:42;;;;;;;6.77;6.37;;;;;;;8.39;100.00;98662.16;5070142;28;20199;-72
2021/12/04 02:18:09;;;;;;;5.97;5.57;;;;;;;8.42;100.00;98656.97;5069819;28;20196;-71
2021/12/04 02:20:37;;;;;;;6.33;5.83;;;;;;;8.39;100.00;98646.84;5070649;28;20201;-72
2021/12/04 02:23:06;;;;;;;6.00;5.70;;;;;;;8.48;100.00;98655.06;5070035;28;20223;-72
2021/12/04 02:25:34;;;;;;;6.37;5.97;;;;;;;8.44;100.00;98650.06;5069850;28;20246;-72
2021/12/04 02:28:02;;;;;;;6.30;5.90;;;;;;;8.50;100.00;98643.09;5069950;28;20211;-72
2021/12/04 02:30:32;;;;;;;11.33;6.03;;;;;;;8.49;100.00;98629.50;5070246;28;20208;-71
2021/12/04 02:32:59;;;;;;;6.93;6.53;;;;;;;8.50;100.00;98643.09;5054094;28;20192;-71
2021/12/04 02:35:29;;;;;;;5.07;4.70;;;;;;;8.43;100.00;98633.06;5053607;28;20283;-71
2021/12/04 02:37:57;;;;;;;5.60;5.10;;;;;;;8.45;100.00;98625.38;5057941;28;20234;-72
2021/12/04 02:40:24;;;;;;;5.47;5.13;;;;;;;8.36;100.00;98610.38;5070055;28;20203;-71
2021/12/04 02:42:52;;;;;;;5.13;4.83;;;;;;;8.39;100.00;98621.31;5072228;28;20192;-72
2021/12/04 02:45:19;;;;;;;4.53;4.23;;;;;;;8.37;100.00;98617.97;5061979;28;20204;-72
2021/12/04 02:47:46;;;;;;;5.07;4.77;;;;;;;8.40;100.00;98617.84;5058024;28;20216;-71
2021/12/04 02:50:16;;;;;;;4.77;4.27;;;;;;;8.41;100.00;98609.31;5068146;28;20210;-71
2021/12/04 02:52:44;;;;;;;5.23;4.80;;;;;;;8.42;100.00;98611.00;5053208;28;20638;-72
2021/12/04 02:55:13;;;;;;;4.37;4.07;;;;;;;8.39;100.00;98603.44;5056449;28;20840;-71
2021/12/04 02:57:43;;;;;;;4.27;3.97;;;;;;;8.41;100.00;98603.38;5052311;28;20204;-72
2021/12/04 03:00:14;;;;;;;4.30;4.00;;;;;;;8.39;100.00;98628.97;5053235;28;20196;-71
2021/12/04 03:02:41;;;;;;;3.87;3.67;;;;;;;8.37;100.00;98638.38;5053318;28;20201;-71
2021/12/04 03:05:10;;;;;;;3.70;3.50;;;;;;;8.32;100.00;98645.38;5070828;28;20576;-70
2021/12/04 03:07:37;;;;;;;3.80;3.60;;;;;;;8.27;100.00;98649.75;5057032;28;20254;-71
2021/12/04 03:10:06;;;;;;;3.13;2.93;;;;;;;8.23;100.00;98642.25;5051049;28;20687;-72
2021/12/04 03:12:35;;;;;;;4.07;3.87;;;;;;;8.23;100.00;98648.22;5051004;28;20197;-71
2021/12/04 03:15:02;;;;;;;4.00;3.80;;;;;;;8.22;100.00;98643.97;5051573;28;20207;-71
2021/12/04 03:17:28;;;;;;;4.70;4.50;;;;;;;8.15;100.00;98627.19;5052169;28;20197;-72
2021/12/04 03:19:55;;;;;;;3.83;3.63;;;;;;;8.26;100.00;98637.91;5052939;28;20672;-71
2021/12/04 03:22:23;;;;;;;3.50;3.30;;;;;;;8.24;100.00;98647.31;5052726;28;20580;-71
2021/12/04 03:24:50;;;;;;;3.43;3.30;;;;;;;8.14;100.00;98638.28;5052600;28;20224;-72
2021/12/04 03:27:18;;;;;;;4.23;4.03;;;;;;;8.21;100.00;98667.81;5066602;28;20317;-70
2021/12/04 03:29:52;;;;;;;3.67;3.47;;;;;;;8.17;100.00;98661.19;5060335;28;20220;-71
2021/12/04 03:35:22;;;;;;;4.47;4.27;;;;;;;8.14;100.00;98666.34;5052643;28;20691;-71
2021/12/04 03:43:19;;;;;;;4.13;3.90;;;;;;;8.12;100.00;98663.03;5064927;28;20285;-71
2021/12/04 03:45:53;;;;;;;3.60;3.40;;;;;;;8.15;100.00;98662.94;5063017;28;20561;-72
2021/12/04 03:48:49;;;;;;;4.03;3.70;;;;;;;8.17;100.00;98661.19;5061774;28;20226;-71
2021/12/04 03:51:16;;;;;;;3.87;3.67;;;;;;;8.18;100.00;98651.78;5072002;28;20196;-72
2021/12/04 03:53:43;;;;;;;3.23;3.13;;;;;;;8.17;100.00;98658.63;5052902;28;20197;-71
2021/12/04 03:56:11;;;;;;;4.20;4.00;;;;;;;8.17;100.00;98668.84;5052053;28;20193;-71
2021/12/04 03:58:39;;;;;;;4.23;3.83;;;;;;;8.18;100.00;98673.03;5051918;28;20251;-72
2021/12/04 04:01:07;;;;;;;4.00;3.80;;;;;;;8.16;100.00;98671.44;5051941;28;20197;-72
2021/12/04 04:03:34;;;;;;;3.63;3.43;;;;;;;8.11;100.00;98674.09;5052066;28;20568;-72
2021/12/04 04:06:01;;;;;;;4.10;3.87;;;;;;;8.13;100.00;98668.97;5052877;28;20576;-72
2021/12/04 04:08:27;;;;;;;3.63;3.30;;;;;;;8.09;100.00;98662.28;5051952;28;20247;-72
2021/12/04 04:10:54;;;;;;;4.03;3.83;;;;;;;8.10;100.00;98663.97;5051679;28;20608;-72
2021/12/04 04:13:22;;;;;;;3.57;3.37;;;;;;;8.07;100.00;98662.34;5051888;28;20228;-72
2021/12/04 04:15:49;;;;;;;4.10;3.90;;;;;;;7.99;100.00;98641.31;5051366;28;20196;-72
2021/12/04 04:18:17;;;;;;;4.27;3.97;;;;;;;8.08;100.00;98656.34;5051990;28;20201;-72
2021/12/04 04:20:44;;;;;;;3.83;3.63;;;;;;;8.08;100.00;98665.75;5051596;28;20205;-72
2021/12/04 04:23:11;;;;;;;3.93;3.73;;;;;;;8.06;100.00;98658.13;5067058;28;20689;-72
2021/12/04 04:25:38;;;;;;;4.17;3.97;;;;;;;8.05;100.00;98651.34;5071449;28;20224;-72
2021/12/04 04:28:05;;;;;;;4.90;4.60;;;;;;;8.06;100.00;98658.13;5071060;28;20659;-72
2021/12/04 04:30:32;;;;;;;4.17;3.97;;;;;;;8.08;100.00;98661.44;5071238;28;20200;-72
2021/12/04 04:33:00;;;;;;;4.37;4.07;;;;;;;8.08;100.00;98661.44;5071163;28;20207;-72
2021/12/04 04:35:31;;;;;;;4.23;4.03;;;;;;;8.03;100.00;98655.66;5071282;28;20303;-72
2021/12/04 04:38:04;;;;;;;4.67;4.37;;;;;;;8.01;100.00;98654.88;5070947;28;20203;-72
2021/12/04 05:00:01;;;;;;;4.30;4.00;;;;;;;7.91;100.00;98659.44;5049049;28;20204;-73
2021/12/04 05:10:03;;;;;;;4.13;3.93;;;;;;;7.87;100.00;98672.34;5058835;28;20680;-72
2021/12/04 05:11:07;;;;;;;3.93;3.73;;;;;;;7.73;100.00;98670.19;5069044;28;20284;-72
2021/12/04 05:13:34;;;;;;;3.60;3.40;;;;;;;7.76;100.00;98682.03;5067526;28;20210;-72
2021/12/04 05:16:11;;;;;;;4.53;4.33;;;;;;;7.77;100.00;98686.25;5068542;28;20204;-71
2021/12/04 05:18:41;;;;;;;3.97;3.77;;;;;;;7.77;100.00;98691.34;5069975;28;20281;-72
2021/12/04 05:21:11;;;;;;;4.80;4.50;;;;;;;7.78;100.00;98687.94;5061763;28;20201;-71
2021/12/04 05:23:42;;;;;;;5.23;4.83;;;;;;;7.77;100.00;98691.34;5057752;28;20721;-71
2021/12/04 05:26:13;;;;;;;4.00;3.80;;;;;;;7.77;100.00;98686.25;5067895;28;20220;-71
2021/12/04 05:28:40;;;;;;;4.63;4.33;;;;;;;7.75;100.00;98693.13;5070529;28;20223;-72
2021/12/04 05:31:07;;;;;;;4.13;3.83;;;;;;;7.77;100.00;98693.91;5070522;28;20200;-71
2021/12/04 05:33:35;;;;;;;4.03;3.83;;;;;;;7.79;100.00;98699.78;5070613;28;20200;-72
2021/12/04 05:36:02;;;;;;;4.20;4.00;;;;;;;7.79;100.00;98699.78;5070638;28;20626;-72
2021/12/04 05:38:29;;;;;;;4.93;4.60;;;;;;;7.74;100.00;98691.44;5063605;28;20207;-72
2021/12/04 05:40:57;;;;;;;4.97;4.67;;;;;;;7.77;100.00;98699.84;5058445;28;20211;-72
2021/12/04 05:43:25;;;;;;;5.30;5.00;;;;;;;7.75;100.00;98698.22;5061491;28;20208;-72
2021/12/04 05:45:57;;;;;;;4.83;4.53;;;;;;;7.76;100.00;98695.63;5053375;28;20292;-72
2021/12/04 05:48:40;;;;;;;5.60;5.20;;;;;;;7.77;100.00;98701.56;5062316;28;20192;-72
2021/12/04 05:51:25;;;;;;;5.17;4.77;;;;;;;7.77;100.00;98702.41;5070324;28;20229;-72
2021/12/04 05:54:04;;;;;;;5.93;5.53;;;;;;;7.80;100.00;98701.47;5070415;28;20196;-72
2021/12/04 05:56:34;;;;;;;5.77;5.03;;;;;;;7.77;100.00;98699.00;5070153;28;20195;-72
2021/12/04 05:59:02;;;;;;;5.27;4.77;;;;;;;7.77;100.00;98706.66;5068322;28;20202;-72
2021/12/04 06:01:32;;;;;;;5.50;5.20;;;;;;;7.78;100.00;98713.44;5050255;28;20216;-72
2021/12/04 06:03:59;;;;;;;6.00;5.60;;;;;;;7.76;100.00;98710.09;5050040;28;20205;-72
2021/12/04 06:06:26;;;;;;;5.37;4.87;;;;;;;7.73;100.00;98715.28;5067156;28;20610;-71
2021/12/04 06:08:54;;;;;;;5.90;5.50;;;;;;;7.77;100.00;98716.88;5052848;28;20213;-72
2021/12/04 06:11:20;;;;;;;5.37;5.07;;;;;;;7.77;100.00;98717.72;5053981;28;20296;-72
2021/12/04 06:13:49;;;;;;;6.00;5.60;;;;;;;7.63;100.00;98693.47;5053492;28;20735;-72
2021/12/04 06:16:17;;;;;;;6.93;6.40;;;;;;;7.78;100.00;98718.56;5053721;28;20207;-72
2021/12/04 06:18:46;;;;;;;7.23;6.47;;;;;;;7.70;100.00;98716.22;5060127;28;20196;-72
2021/12/04 06:23:58;;;;;;;5.87;5.43;;;;;;;7.67;100.00;98718.03;5053020;28;20714;-72
2021/12/04 06:26:25;;;;;;;5.93;5.53;;;;;;;7.61;100.00;98728.41;5072183;28;20216;-72
2021/12/04 06:28:53;;;;;;;7.20;6.73;;;;;;;7.59;100.00;98732.72;5073281;28;20598;-72
2021/12/04 06:31:20;;;;;;;7.50;7.10;;;;;;;7.57;100.00;98737.00;5073441;28;20196;-72
2021/12/04 06:33:47;;;;;;;7.00;6.40;;;;;;;7.58;100.00;98742.09;5069659;28;20211;-72
2021/12/04 06:36:14;;;;;;;7.23;6.63;;;;;;;7.53;100.00;98743.91;5069672;28;20253;-72
2021/12/04 06:38:41;;;;;;;7.40;6.77;;;;;;;7.49;100.00;98739.81;5066806;28;20203;-71
2021/12/04 06:41:08;;;;;;;6.93;6.37;;;;;;;7.40;100.00;98748.53;5062902;28;20207;-72
2021/12/04 06:43:37;;;;;;;7.30;6.63;;;;;;;7.43;100.00;98749.34;5070510;28;20565;-72
2021/12/04 06:46:08;;;;;;;7.67;6.77;;;;;;;7.34;100.00;98758.91;5069143;28;20208;-72
2021/12/04 06:48:42;;;;;;;7.67;7.03;;;;;;;7.26;100.00;98747.25;5070022;28;20249;-72
2021/12/04 06:51:16;;;;;;;7.33;6.70;;;;;;;7.33;100.00;98772.50;5070241;28;20227;-72
2021/12/04 06:53:47;;;;;;;6.63;6.03;;;;;;;7.30;100.00;98762.41;5070384;28;20232;-70
2021/12/04 06:56:15;;;;;;;5.97;5.57;;;;;;;7.25;100.00;98774.44;5069978;28;20706;-72
2021/12/04 06:58:42;;;;;;;5.57;5.23;;;;;;;7.28;100.00;98770.97;5069586;28;20235;-72
2021/12/04 07:01:11;;;;;;;6.20;5.80;;;;;;;7.30;100.00;98774.34;5069963;28;20210;-71
2021/12/04 07:03:38;;;;;;;6.13;5.67;;;;;;;7.21;100.00;98767.75;5070053;28;20295;-72
2021/12/04 07:06:05;;;;;;;9.13;5.20;;;;;;;7.27;100.00;98772.69;5069052;28;20204;-71
2021/12/04 07:08:32;;;;;;;6.10;5.60;;;;;;;7.25;100.00;98774.44;5067485;28;20675;-72
2021/12/04 07:11:03;;;;;;;5.37;4.87;;;;;;;7.35;100.00;98780.97;5069805;28;20619;-71
2021/12/04 07:13:30;;;;;;;4.87;4.57;;;;;;;7.39;100.00;98794.47;5067451;28;20597;-72
2021/12/04 07:16:01;;;;;;;4.83;4.47;;;;;;;7.38;100.00;98808.09;5063100;28;20200;-71
2021/12/04 07:18:29;;;;;;;5.40;5.00;;;;;;;7.34;100.00;98804.78;5069043;28;20200;-71
2021/12/04 07:20:56;;;;;;;5.57;5.20;;;;;;;7.28;100.00;98796.47;5068982;28;20261;-71
2021/12/04 07:23:23;;;;;;;5.80;5.40;;;;;;;7.38;100.00;98805.53;5069348;28;20207;-71
2021/12/04 07:25:50;;;;;;;5.70;5.30;;;;;;;7.38;100.00;98806.38;5069032;28;20230;-72
2021/12/04 07:28:17;;;;;;;4.80;4.50;;;;;;;7.38;100.00;98790.25;5068925;28;20196;-71
2021/12/04 07:30:44;;;;;;;4.80;4.50;;;;;;;7.36;100.00;98795.41;5069052;28;20277;-71
2021/12/04 07:33:14;;;;;;;5.17;4.87;;;;;;;7.39;100.00;98789.38;5068588;28;20212;-71
2021/12/04 07:35:43;;;;;;;5.10;4.80;;;;;;;7.38;100.00;98801.28;5061025;28;20204;-71
2021/12/04 07:38:10;;;;;;;4.93;4.53;;;;;;;7.30;100.00;98780.25;5065468;28;20204;-71
2021/12/04 07:40:38;;;;;;;5.60;5.30;;;;;;;7.42;100.00;98801.19;5064909;28;20644;-71
2021/12/04 07:43:05;;;;;;;4.70;4.40;;;;;;;7.47;100.00;98804.44;5067654;28;20196;-71
2021/12/04 07:45:32;;;;;;;5.67;5.30;;;;;;;7.47;100.00;98804.44;5067968;28;20683;-72
2021/12/04 07:47:59;;;;;;;5.80;5.27;;;;;;;7.54;100.00;98808.50;5062960;28;20265;-71
2021/12/04 07:50:26;;;;;;;5.60;5.27;;;;;;;7.63;100.00;98800.59;5068266;28;20216;-71
2021/12/04 07:52:55;;;;;;;7.47;6.70;;;;;;;7.72;100.00;98811.38;5066096;28;20210;-71
2021/12/04 07:55:23;;;;;;;6.73;6.13;;;;;;;7.76;100.00;98814.69;5063866;28;20603;-71
2021/12/04 07:57:49;;;;;;;7.20;6.50;;;;;;;7.84;100.00;98815.31;5066785;28;20207;-71
2021/12/04 08:00:18;;;;;;;5.73;5.23;;;;;;;7.90;100.00;98820.25;5057865;28;20201;-71
2021/12/04 08:02:45;;;;;;;5.37;5.00;;;;;;;7.90;100.00;98825.34;5068826;28;20207;-71
2021/12/04 08:05:13;;;;;;;6.23;5.73;;;;;;;7.84;100.00;98817.88;5068959;28;20691;-71
2021/12/04 08:07:40;;;;;;;6.27;5.53;;;;;;;7.92;100.00;98826.13;5068686;28;20195;-71
2021/12/04 08:10:12;;;;;;;6.87;6.37;;;;;;;7.94;100.00;98829.50;5068634;28;20277;-71
2021/12/04 08:12:39;;;;;;;5.23;4.93;;;;;;;7.83;100.00;98818.75;5060764;28;20330;-70
2021/12/04 08:15:07;;;;;;;5.17;4.87;;;;;;;7.90;100.00;98822.81;5063577;28;20207;-70
2021/12/04 08:17:34;;;;;;;4.67;4.27;;;;;;;7.95;100.00;98843.91;5068113;28;20208;-71
2021/12/04 08:20:01;;;;;;;4.43;4.23;;;;;;;7.90;100.00;98850.88;5068581;28;20220;-70
2021/12/04 08:22:28;;;;;;;4.60;4.40;;;;;;;7.99;100.00;98860.81;5068361;28;20211;-70
2021/12/04 08:24:55;;;;;;;4.67;4.27;;;;;;;7.93;100.00;98861.00;5064727;28;20223;-71
2021/12/04 08:27:23;;;;;;;4.67;4.40;;;;;;;7.94;100.00;98849.91;5051806;28;20668;-71
2021/12/04 08:29:50;;;;;;;4.83;4.53;;;;;;;7.96;100.00;98850.69;5048188;28;20596;-70
2021/12/04 08:32:17;;;;;;;4.23;4.03;;;;;;;7.99;100.00;98850.59;5053923;28;20258;-70
2021/12/04 08:34:44;;;;;;;4.90;4.57;;;;;;;8.05;100.00;98850.41;5063194;28;20204;-70
2021/12/04 08:37:11;;;;;;;4.40;4.20;;;;;;;8.07;100.00;98852.94;5049697;28;20201;-70
2021/12/04 08:39:38;;;;;;;5.00;4.67;;;;;;;8.12;100.00;98846.81;5051343;28;20207;-71
2021/12/04 08:42:05;;;;;;;5.97;5.53;;;;;;;8.16;100.00;98848.41;5068381;28;20222;-71
2021/12/04 08:44:33;;;;;;;7.27;6.33;;;;;;;8.22;100.00;98843.13;5055587;28;20201;-71
2021/12/04 08:47:00;;;;;;;13.17;8.37;;;;;;;8.26;100.00;98844.72;5067385;28;20214;-71
2021/12/04 08:49:31;;;;;;;6.30;4.87;;;;;;;8.28;100.00;98840.41;5060629;28;20596;-71
2021/12/04 08:52:00;;;;;;;5.57;5.07;;;;;;;8.35;100.00;98841.91;5051849;28;20200;-71
2021/12/04 08:54:27;;;;;;;6.27;5.67;;;;;;;8.36;100.00;98833.38;5052591;28;20615;-71
2021/12/04 08:56:54;;;;;;;5.13;4.73;;;;;;;8.41;100.00;98839.16;5062736;28;20212;-71
2021/12/04 08:59:21;;;;;;;3.83;3.67;;;;;;;8.28;100.00;98819.97;5066502;28;20204;-71
2021/12/04 09:01:50;;;;;;;5.27;4.97;;;;;;;8.38;100.00;98829.03;5067805;28;20202;-71
2021/12/04 09:04:20;;;;;;;6.17;5.57;;;;;;;8.48;100.00;98842.38;5057361;28;20665;-71
2021/12/04 09:06:49;;;;;;;10.40;9.33;;;;;;;8.50;100.00;98827.81;5048306;28;20200;-71
2021/12/04 09:09:16;;;;;;;8.77;7.67;;;;;;;8.57;100.00;98831.03;5047943;28;20200;-72
2021/12/04 09:11:47;;;;;;;6.57;6.07;;;;;;;8.55;100.00;98835.34;5048116;28;20197;-71
2021/12/04 09:14:18;;;;;;;4.87;4.57;;;;;;;8.58;100.00;98835.25;5054846;28;20204;-71
2021/12/04 09:16:45;;;;;;;4.40;4.20;;;;;;;8.58;100.00;98831.00;5059954;28;20247;-71
2021/12/04 09:19:13;;;;;;;5.80;3.83;;;;;;;8.62;100.00;98832.56;5050213;28;20196;-71
2021/12/04 09:21:40;;;;;;;5.83;5.40;;;;;;;8.62;100.00;98831.72;5047875;28;20262;-72
2021/12/04 09:24:11;;;;;;;14.80;9.87;;;;;;;8.71;100.00;98826.31;5055856;28;20579;-71
2021/12/04 09:26:48;;;;;;;89.70;39.53;;;;;;;8.72;100.00;98817.78;5059963;28;20207;-71
2021/12/04 09:29:33;;;;;;;18.57;16.53;;;;;;;8.74;100.00;98816.84;5056602;28;20270;-71
2021/12/04 09:32:25;;;;;;;14.17;12.93;;;;;;;8.81;100.00;98812.38;5062441;28;20204;-71
2021/12/04 10:00:08;;;;;;;4.60;4.30;;;;;;;10.07;100.00;98769.53;5067610;28;20249;-71
2021/12/04 10:02:57;;;;;;;4.83;4.53;;;;;;;10.17;100.00;98763.19;5072023;28;20230;-71
2021/12/04 10:19:45;;;;;;;2.73;2.63;;;;;;;10.83;100.00;98752.78;5061877;28;20699;-71
2021/12/04 10:33:38;;;;;;;5.03;4.73;;;;;;;11.18;100.00;98764.13;5068873;28;20214;-71
2021/12/04 10:36:05;;;;;;;4.73;4.43;;;;;;;11.36;100.00;98768.50;5072304;28;20217;-71
2021/12/04 10:38:38;;;;;;;5.07;4.57;;;;;;;11.44;100.00;98766.41;5073530;28;20556;-71
2021/12/04 10:41:07;;;;;;;4.17;3.97;;;;;;;11.49;100.00;98782.47;5073626;28;20253;-71
2021/12/04 10:43:35;;;;;;;4.03;3.63;;;;;;;11.53;100.00;98775.47;5073366;28;20627;-71
2021/12/04 10:46:11;;;;;;;3.50;3.20;;;;;;;11.49;100.00;98772.19;5073219;28;20731;-71
2021/12/04 10:48:45;;;;;;;3.53;3.33;;;;;;;11.51;100.00;98778.06;5073405;28;20191;-71
2021/12/04 10:51:21;;;;;;;3.77;3.57;;;;;;;11.50;100.00;98778.97;5073366;28;20579;-71
2021/12/04 10:53:55;;;;;;;5.87;5.33;;;;;;;11.48;100.00;98777.38;5072336;28;20278;-71
2021/12/04 10:56:30;;;;;;;4.67;4.23;;;;;;;11.54;100.00;98783.06;5073216;28;20192;-71
2021/12/04 11:01:52;;;;;;;3.80;3.60;;;;;;;11.52;99.40;98769.50;5073331;28;20245;-72
2021/12/04 11:04:26;;;;;;;102.63;35.73;;;;;;;11.59;100.00;98770.06;5072570;28;20203;-71
2021/12/04 11:21:36;;;;;;;41.23;18.23;;;;;;;11.93;100.00;98743.69;5008072;28;20202;-68
2021/12/04 11:27:30;;;;;;;37.60;15.87;;;;;;;12.32;100.00;98767.53;5067046;28;20583;-69
2021/12/04 11:38:30;;;;;;;23.03;11.97;;;;;;;12.40;100.00;98755.19;5072598;28;20196;-68
2021/12/04 11:41:22;;;;;;;89.20;32.53;;;;;;;12.54;100.00;98754.50;5072017;28;20187;-68
2021/12/04 11:44:03;;;;;;;159.23;47.13;;;;;;;12.59;100.00;98766.25;5071690;28;20196;-68
2021/12/04 11:46:43;;;;;;;19.93;11.73;;;;;;;12.59;100.00;98763.66;5070565;28;20208;-69
2021/12/04 11:49:14;;;;;;;38.07;15.63;;;;;;;12.58;100.00;98768.88;5061191;28;20200;-68
2021/12/04 11:51:55;;;;;;;85.23;31.33;;;;;;;12.51;100.00;98768.31;5064291;28;20212;-69
2021/12/04 11:54:23;;;;;;;28.77;15.03;;;;;;;12.47;100.00;98766.81;5065943;28;20205;-68
2021/12/04 11:56:59;;;;;;;11.70;8.67;;;;;;;12.45;100.00;98758.34;5071212;28;20203;-69
2021/12/04 11:59:30;;;;;;;34.90;17.00;;;;;;;12.53;100.00;98766.53;5054645;28;20200;-68
2021/12/04 12:02:01;;;;;;;10.60;9.00;;;;;;;12.59;100.00;98765.41;5053736;28;20227;-68
2021/12/04 12:04:34;;;;;;;60.77;25.17;;;;;;;12.59;100.00;98773.13;5068522;28;20204;-68
2021/12/04 12:07:11;;;;;;;7.13;6.63;;;;;;;12.49;100.00;98769.31;5057178;28;20212;-68
2021/12/04 12:09:39;;;;;;;6.90;6.23;;;;;;;12.61;100.00;98774.69;5069007;28;20210;-69
2021/12/04 12:12:11;;;;;;;40.97;21.60;;;;;;;12.61;100.00;98782.41;5057134;28;20216;-69
2021/12/04 12:14:43;;;;;;;26.77;14.03;;;;;;;12.68;99.94;98782.13;5053869;28;20201;-68
2021/12/04 12:17:12;;;;;;;10.13;9.17;;;;;;;12.71;100.00;98779.38;5068016;28;20196;-68
2021/12/04 12:19:48;;;;;;;8.50;7.80;;;;;;;12.68;100.00;98780.38;5068351;28;20207;-68
2021/12/04 12:22:28;;;;;;;7.50;6.93;;;;;;;12.73;100.00;98782.75;5068442;28;20198;-68
2021/12/04 12:25:07;;;;;;;8.77;8.00;;;;;;;12.78;100.00;98775.63;5058457;28;20292;-68
2021/12/04 12:27:50;;;;;;;7.60;5.77;;;;;;;12.78;100.00;98770.47;5053101;28;20224;-68
2021/12/04 12:33:23;;;;;;;5.93;5.50;;;;;;;12.83;100.00;98773.63;5048384;28;20286;-68
2021/12/04 12:36:05;;;;;;;5.90;5.40;;;;;;;12.85;100.00;98772.69;5067118;28;20196;-68
2021/12/04 12:38:41;;;;;;;7.50;6.93;;;;;;;12.78;100.00;98770.47;5068696;28;20685;-68
2021/12/04 12:41:16;;;;;;;6.40;6.10;;;;;;;12.87;100.00;98775.16;5067967;28;20207;-68
2021/12/04 12:43:51;;;;;;;7.70;7.00;;;;;;;12.86;100.00;98774.31;5064760;28;20211;-68
2021/12/04 12:46:19;;;;;;;6.33;5.73;;;;;;;12.82;100.00;98772.00;5065455;28;20632;-68
2021/12/04 12:48:53;;;;;;;7.13;6.63;;;;;;;12.83;100.00;98768.50;5066209;28;20219;-68
2021/12/04 12:51:29;;;;;;;7.13;6.53;;;;;;;12.58;100.00;98750.88;5067422;28;20223;-68
2021/12/04 12:53:56;;;;;;;6.93;6.33;;;;;;;12.62;100.00;98762.69;5068029;28;20199;-69
2021/12/04 12:56:27;;;;;;;6.20;5.80;;;;;;;12.58;100.00;98764.56;5066782;28;20203;-68
2021/12/04 12:58:57;;;;;;;7.50;5.73;;;;;;;12.60;100.00;98765.31;5067517;28;20208;-68
2021/12/04 13:13:43;;;;;;;16.60;10.20;;;;;;;12.58;100.00;98795.41;5063849;28;20203;-68
2021/12/04 13:16:20;;;;;;;7.93;7.23;;;;;;;12.62;100.00;98790.97;5048896;28;20210;-69
2021/12/04 13:18:52;;;;;;;6.97;6.30;;;;;;;12.47;100.00;98782.22;5063449;28;20211;-68
2021/12/04 13:21:20;;;;;;;7.47;6.67;;;;;;;12.63;100.00;98780.59;5063353;28;20679;-68
2021/12/04 13:23:51;;;;;;;7.47;6.87;;;;;;;12.68;100.00;98779.53;5064766;28;20299;-68
2021/12/04 13:26:20;;;;;;;7.17;6.60;;;;;;;12.67;100.00;98777.88;5065395;28;20237;-66
2021/12/04 13:28:51;;;;;;;6.47;5.87;;;;;;;12.72;100.00;98769.03;5063480;28;20203;-68
2021/12/04 13:31:19;;;;;;;6.37;5.97;;;;;;;12.77;100.00;98776.50;5060577;28;20220;-68
2021/12/04 13:33:48;;;;;;;833.07;274.00;;;;;;;12.78;100.00;98778.19;5064436;28;20768;-69
2021/12/04 13:36:15;;;;;;;889.07;302.70;;;;;;;12.77;100.00;98786.81;5065511;28;20204;-68
2021/12/04 13:38:43;;;;;;;384.60;99.00;;;;;;;12.77;100.00;98794.53;5053960;28;20204;-68
2021/12/04 13:41:11;;;;;;;47.33;19.43;;;;;;;12.78;100.00;98801.34;5058568;28;20204;-68
2021/12/04 13:43:39;;;;;;;19.57;10.10;;;;;;;12.76;100.00;98800.59;5063619;28;20207;-69
2021/12/04 13:46:06;;;;;;;9.17;8.20;;;;;;;12.73;100.00;98793.03;5061883;28;20195;-69
2021/12/04 13:48:36;;;;;;;13.77;11.90;;;;;;;12.67;100.00;98796.69;5061998;28;20204;-68
2021/12/04 13:51:03;;;;;;;10.00;9.07;;;;;;;12.62;100.00;98791.81;5065819;28;20228;-68
2021/12/04 13:53:33;;;;;;;360.30;124.27;;;;;;;12.72;100.00;98801.63;5059981;28;20294;-68
2021/12/04 13:56:05;;;;;;;44.87;22.03;;;;;;;12.67;100.00;98803.59;5062841;28;20211;-68
2021/12/04 13:58:32;;;;;;;21.87;12.60;;;;;;;12.64;100.00;98807.97;5056687;28;20203;-68
2021/12/04 14:01:00;;;;;;;18.90;11.57;;;;;;;12.61;100.00;98815.00;5062033;28;20642;-68